createdAt,value
2022-08-24T00:01:22.399Z,14.37
2022-08-24T00:03:49.751Z,13.23
2022-08-24T00:06:23.580Z,15.10
2022-08-24T00:08:52.851Z,17.13
2022-08-24T00:11:20.484Z,14.93
2022-08-24T00:13:47.423Z,13.13
2022-08-24T00:16:15.964Z,13.47
2022-08-24T00:18:44.256Z,12.20
2022-08-24T00:21:10.991Z,16.63
2022-08-24T00:23:37.634Z,11.90
2022-08-24T00:26:05.353Z,16.73
2022-08-24T00:28:32.126Z,20.03
2022-08-24T00:30:59.080Z,17.10
2022-08-24T00:33:26.522Z,14.07
2022-08-24T00:35:53.201Z,17.03
2022-08-24T00:38:20.353Z,18.97
2022-08-24T00:40:49.214Z,17.40
2022-08-24T00:43:20.671Z,26.17
2022-08-24T00:46:21.979Z,19.43
2022-08-24T00:48:55.213Z,16.90
2022-08-24T00:51:33.445Z,21.43
2022-08-24T00:54:08.799Z,18.00
2022-08-24T00:56:49.417Z,16.97
2022-08-24T00:59:22.444Z,23.03
2022-08-24T01:01:51.387Z,21.40
2022-08-24T01:04:29.881Z,22.90
2022-08-24T01:06:57.366Z,20.50
2022-08-24T01:09:24.152Z,21.03
2022-08-24T01:11:51.013Z,18.27
2022-08-24T01:14:20.479Z,21.47
2022-08-24T01:17:05.862Z,17.23
2022-08-24T01:19:39.543Z,16.47
2022-08-24T01:22:21.014Z,17.27
2022-08-24T01:24:47.870Z,21.80
2022-08-24T01:27:15.595Z,16.87
2022-08-24T01:29:45.737Z,18.40
2022-08-24T01:32:14.488Z,16.67
2022-08-24T01:34:41.255Z,16.57
2022-08-24T01:37:10.867Z,19.80
2022-08-24T01:39:43.855Z,25.13
2022-08-24T01:42:11.541Z,19.43
2022-08-24T01:44:40.203Z,18.73
2022-08-24T01:47:08.717Z,17.57
2022-08-24T01:49:40.079Z,18.87
2022-08-24T01:52:08.202Z,24.37
2022-08-24T01:54:35.376Z,20.00
2022-08-24T01:57:02.280Z,18.20
2022-08-24T01:59:29.654Z,17.33
2022-08-24T02:02:19.887Z,17.90
2022-08-24T02:04:46.581Z,18.07
2022-08-24T02:07:14.080Z,17.67
2022-08-24T02:09:40.882Z,15.60
2022-08-24T02:12:08.200Z,15.97
2022-08-24T02:14:36.572Z,18.67
2022-08-24T02:17:05.829Z,16.70
2022-08-24T02:19:32.678Z,16.10
2022-08-24T02:22:00.529Z,15.67
2022-08-24T02:24:30.660Z,18.50
2022-08-24T02:26:58.235Z,17.40
2022-08-24T02:29:25.396Z,18.50
2022-08-24T02:31:52.296Z,19.03
2022-08-24T02:34:19.065Z,18.97
2022-08-24T02:36:45.953Z,19.40
2022-08-24T02:39:13.091Z,17.17
2022-08-24T02:41:39.882Z,19.27
2022-08-24T02:44:07.187Z,18.00
2022-08-24T02:46:33.917Z,24.57
2022-08-24T02:49:10.564Z,25.77
2022-08-24T02:51:44.078Z,21.70
2022-08-24T02:54:13.569Z,19.70
2022-08-24T02:56:40.277Z,21.37
2022-08-24T02:59:06.974Z,19.03
2022-08-24T03:01:33.860Z,19.03
2022-08-24T03:04:00.564Z,19.87
2022-08-24T03:06:27.248Z,21.43
2022-08-24T03:08:56.421Z,21.83
2022-08-24T03:11:28.008Z,23.07
2022-08-24T03:13:56.458Z,20.37
2022-08-24T03:16:23.155Z,22.37
2022-08-24T03:18:49.903Z,20.17
2022-08-24T03:21:18.743Z,17.90
2022-08-24T03:23:45.383Z,19.03
2022-08-24T03:26:13.067Z,17.93
2022-08-24T03:28:40.140Z,24.70
2022-08-24T03:31:07.479Z,23.83
2022-08-24T03:33:34.299Z,19.67
2022-08-24T03:36:00.985Z,16.70
2022-08-24T03:38:28.370Z,24.97
2022-08-24T03:40:55.041Z,21.77
2022-08-24T03:43:40.261Z,17.97
2022-08-24T03:46:09.152Z,23.90
2022-08-24T03:48:36.765Z,19.77
2022-08-24T03:51:03.755Z,16.90
2022-08-24T03:53:30.455Z,18.33
2022-08-24T03:55:57.078Z,23.47
2022-08-24T03:58:23.971Z,15.87
2022-08-24T04:00:50.895Z,15.27
2022-08-24T04:03:17.682Z,13.30
2022-08-24T04:05:44.422Z,13.50
2022-08-24T04:08:11.490Z,11.50
2022-08-24T04:10:43.575Z,9.33
2022-08-24T04:13:10.242Z,16.10
2022-08-24T04:15:40.911Z,11.17
2022-08-24T04:18:08.479Z,10.10
2022-08-24T04:20:41.152Z,11.80
2022-08-24T04:23:09.306Z,7.73
2022-08-24T04:25:41.742Z,9.60
2022-08-24T04:28:08.541Z,8.33
2022-08-24T04:30:35.185Z,6.50
2022-08-24T04:33:02.332Z,9.40
2022-08-24T04:35:29.119Z,8.27
2022-08-24T04:37:55.791Z,7.90
2022-08-24T04:40:22.632Z,9.17
2022-08-24T04:42:50.651Z,11.47
2022-08-24T04:45:17.322Z,6.27
2022-08-24T04:47:45.585Z,7.60
2022-08-24T04:50:12.947Z,6.17
2022-08-24T04:52:39.703Z,7.83
2022-08-24T04:55:07.633Z,4.87
2022-08-24T04:57:35.068Z,4.93
2022-08-24T05:00:03.279Z,5.67
2022-08-24T05:02:30.015Z,7.87
2022-08-24T05:04:57.932Z,11.53
2022-08-24T05:07:25.876Z,9.77
2022-08-24T05:09:52.845Z,6.23
2022-08-24T05:12:20.911Z,8.10
2022-08-24T05:14:47.609Z,5.93
2022-08-24T05:17:14.299Z,6.00
2022-08-24T05:19:41.038Z,3.80
2022-08-24T05:22:08.119Z,7.83
2022-08-24T05:24:34.872Z,6.07
2022-08-24T05:27:01.559Z,5.80
2022-08-24T05:29:28.303Z,6.27
2022-08-24T05:31:55.038Z,5.03
2022-08-24T05:34:23.863Z,7.13
2022-08-24T05:36:50.529Z,5.30
2022-08-24T05:39:17.207Z,5.97
2022-08-24T05:41:45.341Z,6.47
2022-08-24T05:44:14.182Z,5.60
2022-08-24T05:46:41.250Z,5.43
2022-08-24T05:49:08.306Z,5.83
2022-08-24T05:51:35.698Z,6.50
2022-08-24T05:54:05.037Z,5.70
2022-08-24T05:56:32.255Z,7.90
2022-08-24T05:58:59.352Z,4.90
2022-08-24T06:01:27.266Z,7.00
2022-08-24T06:03:56.462Z,8.43
2022-08-24T06:06:24.320Z,6.53
2022-08-24T06:08:53.529Z,5.57
2022-08-24T06:11:24.751Z,4.87
2022-08-24T06:14:07.368Z,6.50
2022-08-24T06:16:41.318Z,9.00
2022-08-24T06:19:09.921Z,6.43
2022-08-24T06:21:37.988Z,6.27
2022-08-24T06:24:06.569Z,17.30
2022-08-24T06:26:52.561Z,7.53
2022-08-24T06:29:20.320Z,5.93
2022-08-24T06:31:54.218Z,7.90
2022-08-24T06:34:23.313Z,6.77
2022-08-24T06:36:50.463Z,5.73
2022-08-24T06:39:17.261Z,5.03
2022-08-24T06:41:44.133Z,6.97
2022-08-24T06:44:11.121Z,7.23
2022-08-24T06:46:37.943Z,8.63
2022-08-24T06:49:05.532Z,5.27
2022-08-24T06:51:32.627Z,14.00
2022-08-24T06:53:59.529Z,5.80
2022-08-24T06:56:26.503Z,6.53
2022-08-24T06:58:53.264Z,5.53
2022-08-24T07:01:27.559Z,9.13
2022-08-24T07:03:54.880Z,12.40
2022-08-24T07:06:23.596Z,7.20
2022-08-24T07:08:51.135Z,5.80
2022-08-24T07:11:19.095Z,6.30
2022-08-24T07:13:47.526Z,6.33
2022-08-24T07:16:22.172Z,5.83
2022-08-24T07:18:50.229Z,9.93
2022-08-24T07:21:19.737Z,6.77
2022-08-24T07:23:48.319Z,7.33
2022-08-24T07:26:21.472Z,7.67
2022-08-24T07:29:01.403Z,6.13
2022-08-24T07:31:32.025Z,8.03
2022-08-24T07:34:01.450Z,6.40
2022-08-24T07:36:28.545Z,8.83
2022-08-24T07:38:56.218Z,6.87
2022-08-24T07:44:13.044Z,4.67
2022-08-24T07:46:41.772Z,5.70
2022-08-24T07:49:31.600Z,8.67
2022-08-24T07:51:56.109Z,6.70
2022-08-24T07:54:22.917Z,5.30
2022-08-24T07:56:50.338Z,10.13
2022-08-24T07:59:18.181Z,5.17
2022-08-24T08:01:45.067Z,7.23
2022-08-24T08:04:12.148Z,5.57
2022-08-24T08:06:38.879Z,8.83
2022-08-24T08:09:06.434Z,7.37
2022-08-24T08:11:33.210Z,5.80
2022-08-24T08:14:00.079Z,6.77
2022-08-24T08:16:27.866Z,5.70
2022-08-24T08:19:11.068Z,7.83
2022-08-24T08:22:16.950Z,7.87
2022-08-24T08:24:43.951Z,8.70
2022-08-24T08:27:12.550Z,8.03
2022-08-24T08:29:40.682Z,4.93
2022-08-24T08:32:09.546Z,10.97
2022-08-24T08:34:36.818Z,4.97
2022-08-24T08:37:03.961Z,7.63
2022-08-24T08:39:31.394Z,5.67
2022-08-24T08:42:35.454Z,5.20
2022-08-24T08:45:28.454Z,9.73
2022-08-24T08:48:22.947Z,5.97
2022-08-24T08:50:55.959Z,7.10
2022-08-24T08:54:10.725Z,5.20
2022-08-24T08:57:09.976Z,5.87
2022-08-24T09:00:09.086Z,4.50
2022-08-24T09:03:17.433Z,6.07
2022-08-24T09:05:57.548Z,9.60
2022-08-24T09:08:52.105Z,4.50
2022-08-24T09:11:21.826Z,4.37
2022-08-24T09:13:58.909Z,5.93
2022-08-24T09:16:51.158Z,7.37
2022-08-24T09:19:40.016Z,5.43
2022-08-24T09:22:16.960Z,5.97
2022-08-24T09:24:52.856Z,6.13
2022-08-24T09:27:53.340Z,6.13
2022-08-24T09:30:26.008Z,4.80
2022-08-24T09:33:27.175Z,4.93
2022-08-24T09:36:00.122Z,4.37
2022-08-24T09:38:41.695Z,4.57
2022-08-24T09:41:14.147Z,6.50
2022-08-24T09:44:03.512Z,6.27
2022-08-24T09:46:33.231Z,20.17
2022-08-24T09:49:13.629Z,9.50
2022-08-24T09:51:56.569Z,4.97
2022-08-24T09:54:48.186Z,5.97
2022-08-24T09:57:20.017Z,5.23
2022-08-24T10:00:24.267Z,3.87
2022-08-24T10:03:11.938Z,5.67
2022-08-24T10:06:00.022Z,4.30
2022-08-24T10:08:53.447Z,5.40
2022-08-24T10:11:47.764Z,5.47
2022-08-24T10:14:42.407Z,5.57
2022-08-24T10:17:30.827Z,5.70
2022-08-24T10:20:19.246Z,4.70
2022-08-24T10:23:22.621Z,6.10
2022-08-24T10:25:59.994Z,3.83
2022-08-24T10:28:57.422Z,4.70
2022-08-24T10:31:26.720Z,3.50
2022-08-24T10:34:30.282Z,5.77
2022-08-24T10:37:25.545Z,5.70
2022-08-24T10:40:06.388Z,6.30
2022-08-24T10:43:00.585Z,7.30
2022-08-24T10:45:27.218Z,4.93
2022-08-24T10:48:15.438Z,5.43
2022-08-24T10:50:50.862Z,4.33
2022-08-24T10:53:32.977Z,4.63
2022-08-24T10:56:14.871Z,5.27
2022-08-24T10:58:47.443Z,7.03
2022-08-24T11:01:23.354Z,8.27
2022-08-24T11:03:50.404Z,6.30
2022-08-24T11:06:19.352Z,5.73
2022-08-24T11:09:17.236Z,4.17
2022-08-24T11:11:48.846Z,6.53
2022-08-24T11:14:15.475Z,4.00
2022-08-24T11:16:45.259Z,5.47
2022-08-24T11:19:31.343Z,5.73
2022-08-24T11:22:02.091Z,4.90
2022-08-24T11:24:46.032Z,5.27
2022-08-24T11:27:15.377Z,4.47
2022-08-24T11:29:54.837Z,6.17
2022-08-24T11:32:39.747Z,5.50
2022-08-24T11:35:33.634Z,6.77
2022-08-24T11:38:07.358Z,5.87
2022-08-24T11:40:43.607Z,5.30
2022-08-24T11:43:22.610Z,9.57
2022-08-24T11:46:11.571Z,5.60
2022-08-24T11:48:53.376Z,7.97
2022-08-24T11:51:21.281Z,4.80
2022-08-24T11:53:47.890Z,9.10
2022-08-24T11:56:33.047Z,6.57
2022-08-24T11:59:26.302Z,4.80
2022-08-24T12:02:04.272Z,5.97
2022-08-24T12:04:49.235Z,4.37
2022-08-24T12:07:28.121Z,6.80
2022-08-24T12:09:54.702Z,6.50
2022-08-24T12:12:40.931Z,10.33
2022-08-24T12:15:17.074Z,6.77
2022-08-24T12:17:49.422Z,6.57
2022-08-24T12:20:32.121Z,4.70
2022-08-24T12:23:08.753Z,6.40
2022-08-24T12:25:54.207Z,5.27
2022-08-24T12:28:29.123Z,6.33
2022-08-24T12:31:02.095Z,6.30
2022-08-24T12:33:37.546Z,7.30
2022-08-24T12:36:13.574Z,4.73
2022-08-24T12:38:48.050Z,6.57
2022-08-24T12:41:27.551Z,5.83
2022-08-24T12:44:02.362Z,4.40
2022-08-24T12:46:30.392Z,9.13
2022-08-24T12:49:12.466Z,7.20
2022-08-24T12:52:05.136Z,8.13
2022-08-24T12:54:53.319Z,5.83
2022-08-24T12:57:39.619Z,6.80
2022-08-24T13:00:24.543Z,6.70
2022-08-24T13:03:04.461Z,10.77
2022-08-24T13:05:50.799Z,6.80
2022-08-24T13:08:32.083Z,9.27
2022-08-24T13:11:27.539Z,8.30
2022-08-24T13:13:54.102Z,7.00
2022-08-24T13:17:06.698Z,9.80
2022-08-24T13:19:38.668Z,6.30
2022-08-24T13:22:10.860Z,11.23
2022-08-24T13:24:42.076Z,8.93
2022-08-24T13:27:11.581Z,9.93
2022-08-24T13:30:13.546Z,9.33
2022-08-24T13:32:45.489Z,5.97
2022-08-24T13:35:55.315Z,12.00
2022-08-24T13:38:24.582Z,8.93
2022-08-24T13:40:56.931Z,6.27
2022-08-24T13:43:26.555Z,8.43
2022-08-24T13:46:00.108Z,11.37
2022-08-24T13:48:49.429Z,8.13
2022-08-24T13:51:24.983Z,5.17
2022-08-24T13:54:20.389Z,5.77
2022-08-24T13:57:07.124Z,10.70
2022-08-24T13:59:52.173Z,7.53
2022-08-24T14:02:39.269Z,9.27
2022-08-24T14:05:44.036Z,5.73
2022-08-24T14:08:28.537Z,7.03
2022-08-24T14:11:08.977Z,6.87
2022-08-24T14:14:05.341Z,10.47
2022-08-24T14:17:02.630Z,8.67
2022-08-24T14:19:43.155Z,7.97
2022-08-24T14:22:09.770Z,5.43
2022-08-24T14:24:48.581Z,9.60
2022-08-24T14:27:35.005Z,7.67
2022-08-24T14:30:23.518Z,12.27
2022-08-24T14:33:03.465Z,6.97
2022-08-24T14:35:53.706Z,8.20
2022-08-24T14:38:20.313Z,9.17
2022-08-24T14:40:53.015Z,7.77
2022-08-24T14:43:30.843Z,7.60
2022-08-24T14:46:19.278Z,9.67
2022-08-24T14:48:48.781Z,9.23
2022-08-24T14:51:44.195Z,9.10
2022-08-24T14:54:47.840Z,7.27
2022-08-24T14:57:37.888Z,12.33
2022-08-24T15:00:15.924Z,10.43
2022-08-24T15:02:51.644Z,8.40
2022-08-24T15:05:36.175Z,17.83
2022-08-24T15:08:13.273Z,12.67
2022-08-24T15:11:05.676Z,10.83
2022-08-24T15:13:42.095Z,10.57
2022-08-24T15:16:27.303Z,9.13
2022-08-24T15:19:03.045Z,12.27
2022-08-24T15:21:47.764Z,12.53
2022-08-24T15:24:29.238Z,12.57
2022-08-24T15:27:33.605Z,8.03
2022-08-24T15:30:04.651Z,10.70
2022-08-24T15:32:44.554Z,10.97
2022-08-24T15:35:30.453Z,17.90
2022-08-24T15:37:58.094Z,16.43
2022-08-24T15:40:31.707Z,14.37
2022-08-24T15:43:04.082Z,14.33
2022-08-24T15:45:32.950Z,12.83
2022-08-24T15:48:02.378Z,15.73
2022-08-24T15:50:41.637Z,13.73
2022-08-24T15:53:14.167Z,13.43
2022-08-24T15:55:43.723Z,11.00
2022-08-24T15:58:37.646Z,8.87
2022-08-24T16:01:28.736Z,11.90
2022-08-24T16:04:01.956Z,15.47
2022-08-24T16:06:31.853Z,16.73
2022-08-24T16:09:18.711Z,14.17
2022-08-24T16:11:48.172Z,13.53
2022-08-24T16:14:25.924Z,12.43
2022-08-24T16:16:54.472Z,17.90
2022-08-24T16:19:25.911Z,17.33
2022-08-24T16:22:01.135Z,15.37
2022-08-24T16:24:33.148Z,9.40
2022-08-24T16:27:14.727Z,14.17
2022-08-24T16:29:45.197Z,15.53
2022-08-24T16:32:33.649Z,15.13
2022-08-24T16:35:11.699Z,20.77
2022-08-24T16:37:39.367Z,13.57
2022-08-24T16:40:08.522Z,15.57
2022-08-24T16:42:36.544Z,11.90
2022-08-24T16:45:06.110Z,14.80
2022-08-24T16:47:32.793Z,18.47
2022-08-24T16:49:59.408Z,17.30
2022-08-24T16:52:26.061Z,18.27
2022-08-24T16:54:52.682Z,16.17
2022-08-24T16:57:22.965Z,14.63
2022-08-24T16:59:52.152Z,21.97
2022-08-24T17:02:20.232Z,19.17
2022-08-24T17:04:46.967Z,26.17
2022-08-24T17:07:21.531Z,19.30
2022-08-24T17:09:48.865Z,19.33
2022-08-24T17:12:15.643Z,15.63
2022-08-24T17:14:42.831Z,18.27
2022-08-24T17:17:13.645Z,19.90
2022-08-24T17:19:41.075Z,20.83
2022-08-24T17:22:14.294Z,16.23
2022-08-24T17:24:43.083Z,15.13
2022-08-24T17:27:09.767Z,18.03
2022-08-24T17:29:36.627Z,26.30
2022-08-24T17:32:03.918Z,23.63
2022-08-24T17:34:32.190Z,23.03
2022-08-24T17:37:00.112Z,19.33
2022-08-24T17:39:27.472Z,19.07
2022-08-24T17:41:56.368Z,22.27
2022-08-24T17:44:26.723Z,20.17
2022-08-24T17:46:57.686Z,13.53
2022-08-24T17:49:25.095Z,24.33
2022-08-24T17:51:52.146Z,16.23
2022-08-24T17:54:19.391Z,24.83
2022-08-24T17:56:48.746Z,17.70
2022-08-24T17:59:23.575Z,24.07
2022-08-24T18:01:52.679Z,20.00
2022-08-24T18:04:21.858Z,16.57
2022-08-24T18:06:49.596Z,22.97
2022-08-24T18:09:21.527Z,27.53
2022-08-24T18:11:48.158Z,24.00
2022-08-24T18:14:15.089Z,21.03
2022-08-24T18:16:41.835Z,22.00
2022-08-24T18:19:11.865Z,21.03
2022-08-24T18:21:38.693Z,21.67
2022-08-24T18:24:05.771Z,12.73
2022-08-24T18:26:33.769Z,19.77
2022-08-24T18:29:09.042Z,23.20
2022-08-24T18:31:36.012Z,18.13
2022-08-24T18:34:02.707Z,26.47
2022-08-24T18:36:29.420Z,20.57
2022-08-24T18:38:56.044Z,20.30
2022-08-24T18:41:35.396Z,22.93
2022-08-24T18:44:03.704Z,22.80
2022-08-24T18:46:31.289Z,33.50
2022-08-24T18:48:59.041Z,45.00
2022-08-24T18:51:28.137Z,24.83
2022-08-24T18:54:05.372Z,28.67
2022-08-24T18:56:32.133Z,26.07
2022-08-24T18:58:58.875Z,31.30
2022-08-24T19:01:27.335Z,22.60
2022-08-24T19:03:55.565Z,30.50
2022-08-24T19:06:24.374Z,25.33
2022-08-24T19:08:51.249Z,18.10
2022-08-24T19:11:23.348Z,20.80
2022-08-24T19:13:50.000Z,25.17
2022-08-24T19:16:17.036Z,25.03
2022-08-24T19:18:45.922Z,24.43
2022-08-24T19:21:12.632Z,30.37
2022-08-24T19:23:40.638Z,16.80
2022-08-24T19:26:07.392Z,27.57
2022-08-24T19:28:34.138Z,15.80
2022-08-24T19:31:03.740Z,25.80
2022-08-24T19:33:41.252Z,20.63
2022-08-24T19:36:08.072Z,19.17
2022-08-24T19:38:34.776Z,22.77
2022-08-24T19:41:03.580Z,26.00
2022-08-24T19:43:58.543Z,22.30
2022-08-24T19:46:25.297Z,17.30
2022-08-24T19:48:52.064Z,15.57
2022-08-24T19:51:18.854Z,20.70
2022-08-24T19:53:45.752Z,24.97
2022-08-24T19:56:12.441Z,19.80
2022-08-24T19:59:01.296Z,20.97
2022-08-24T20:01:34.459Z,16.63
2022-08-24T20:04:03.333Z,15.80
2022-08-24T20:06:33.349Z,13.03
2022-08-24T20:09:02.843Z,21.90
2022-08-24T20:11:29.705Z,14.73
2022-08-24T20:13:56.728Z,21.33
2022-08-24T20:16:26.633Z,24.73
2022-08-24T20:18:53.475Z,23.63
2022-08-24T20:21:20.368Z,20.67
2022-08-24T20:23:47.024Z,29.10
2022-08-24T20:26:14.161Z,28.53
2022-08-24T20:28:48.121Z,19.90
2022-08-24T20:31:15.731Z,23.67
2022-08-24T20:33:42.469Z,14.90
2022-08-24T20:36:36.414Z,12.70
2022-08-24T20:39:07.071Z,12.87
2022-08-24T20:41:33.822Z,16.87
2022-08-24T20:44:01.607Z,17.77
2022-08-24T20:46:29.119Z,21.03
2022-08-24T20:48:57.285Z,25.67
2022-08-24T20:51:26.767Z,25.97
2022-08-24T20:53:54.174Z,18.57
2022-08-24T20:56:31.477Z,19.73
2022-08-24T20:59:01.258Z,14.10
2022-08-24T21:01:27.998Z,25.80
2022-08-24T21:03:54.716Z,18.93
2022-08-24T21:06:21.452Z,15.50
2022-08-24T21:08:50.786Z,13.30
2022-08-24T21:11:18.210Z,24.50
2022-08-24T21:13:44.877Z,20.37
2022-08-24T21:16:14.901Z,20.13
2022-08-24T21:18:46.868Z,18.50
2022-08-24T21:21:13.971Z,16.20
2022-08-24T21:23:40.740Z,12.27
2022-08-24T21:26:10.728Z,19.77
2022-08-24T21:28:41.033Z,20.00
2022-08-24T21:31:07.776Z,16.37
2022-08-24T21:33:53.554Z,16.27
2022-08-24T21:36:23.458Z,21.10
2022-08-24T21:38:52.023Z,22.90
2022-08-24T21:41:20.561Z,16.73
2022-08-24T21:43:47.259Z,18.93
2022-08-24T21:46:14.336Z,20.13
2022-08-24T21:48:41.209Z,16.17
2022-08-24T21:51:08.058Z,18.80
2022-08-24T21:53:34.883Z,26.00
2022-08-24T21:56:02.484Z,16.17
2022-08-24T21:58:29.604Z,18.77
2022-08-24T22:00:59.041Z,18.37
2022-08-24T22:03:26.433Z,34.43
2022-08-24T22:05:58.479Z,18.13
2022-08-24T22:08:26.074Z,26.57
2022-08-24T22:10:55.482Z,24.83
2022-08-24T22:13:22.263Z,28.87
2022-08-24T22:15:50.230Z,36.67
2022-08-24T22:18:16.963Z,17.87
2022-08-24T22:20:43.623Z,18.97
2022-08-24T22:23:10.331Z,18.70
2022-08-24T22:25:37.009Z,13.87
2022-08-24T22:28:03.941Z,24.07
2022-08-24T22:30:33.114Z,26.13
2022-08-24T22:33:00.280Z,15.03
2022-08-24T22:35:27.362Z,23.27
2022-08-24T22:37:54.034Z,20.23
2022-08-24T22:40:20.818Z,19.63
2022-08-24T22:42:47.524Z,20.40
2022-08-24T22:45:14.140Z,18.23
2022-08-24T22:47:40.795Z,10.33
2022-08-24T22:50:08.460Z,15.33
2022-08-24T22:52:35.111Z,12.73
2022-08-24T22:55:01.814Z,14.87
2022-08-24T22:57:30.389Z,16.90
2022-08-24T22:59:57.696Z,15.63
2022-08-24T23:02:24.532Z,15.73
2022-08-24T23:04:52.774Z,19.37
2022-08-24T23:07:20.438Z,15.87
2022-08-24T23:09:48.415Z,19.60
2022-08-24T23:12:19.300Z,21.07
2022-08-24T23:14:46.039Z,14.80
2022-08-24T23:17:12.800Z,14.97
2022-08-24T23:19:58.160Z,13.53
2022-08-24T23:22:25.582Z,16.30
2022-08-24T23:24:52.913Z,19.97
2022-08-24T23:27:20.150Z,13.87
2022-08-24T23:29:47.773Z,18.20
2022-08-24T23:32:18.102Z,11.00
2022-08-24T23:34:46.391Z,12.13
2022-08-24T23:37:13.536Z,23.80
2022-08-24T23:39:40.203Z,16.40
2022-08-24T23:42:07.153Z,19.80
2022-08-24T23:44:34.031Z,15.10
2022-08-24T23:47:01.204Z,23.87
2022-08-24T23:49:29.510Z,21.43
2022-08-24T23:51:56.365Z,13.93
2022-08-24T23:54:23.740Z,18.03
2022-08-24T23:56:51.518Z,23.40
2022-08-24T23:59:22.346Z,16.57
